Andrews AFB, Maryland
Current Conditions -  °F | °C
As of 8:58 AM on Friday 31 Oct 2014 (Local Time) from KADW Reporting Station
Scattered Clouds Scattered Clouds  
Wind Chill: 39°   Ceiling: Unl
Heat Index: 43°   Visibility: 10mi
Dew Point: 37°   Wind: 6mph
Humidity: 80%   Direction: 50°NE
Pressure: 30"   Gusts: NA
Location:  38.8°N, 76.87°W
Report Text: KADW 311258Z AUTO 05005KT 10SM SCT055 06/03 A3000 RMK AO2 RAB1241E1248 SLP167 P0000 T00600028 $
Loading
Personal Weather Stations






























Interactive Weather Map New forecast layout! Learn more

10-Day Weather Forecast

Advertisements
Track Severe Weather on mobile